sensor_id;sensor_type;location;lat;lon;timestamp;temperature;humidity
1075;DHT22;526;51.392;12.448;2023-02-28T00:01:06;0.40;97.30
1075;DHT22;526;51.392;12.448;2023-02-28T00:03:32;0.40;97.30
1075;DHT22;526;51.392;12.448;2023-02-28T00:06:06;0.40;97.30
1075;DHT22;526;51.392;12.448;2023-02-28T00:08:32;0.40;97.30
1075;DHT22;526;51.392;12.448;2023-02-28T00:11:08;0.40;97.30
1075;DHT22;526;51.392;12.448;2023-02-28T00:13:36;0.40;97.30
1075;DHT22;526;51.392;12.448;2023-02-28T00:16:05;0.40;97.30
1075;DHT22;526;51.392;12.448;2023-02-28T00:18:30;0.40;97.30
1075;DHT22;526;51.392;12.448;2023-02-28T00:20:57;0.40;97.30
1075;DHT22;526;51.392;12.448;2023-02-28T00:23:22;0.40;97.30
1075;DHT22;526;51.392;12.448;2023-02-28T00:25:48;0.40;97.30
1075;DHT22;526;51.392;12.448;2023-02-28T00:28:14;0.40;97.30
1075;DHT22;526;51.392;12.448;2023-02-28T00:30:39;0.40;97.30
1075;DHT22;526;51.392;12.448;2023-02-28T00:33:05;0.40;97.30
1075;DHT22;526;51.392;12.448;2023-02-28T00:35:30;0.40;97.30
1075;DHT22;526;51.392;12.448;2023-02-28T00:37:56;0.40;97.30
1075;DHT22;526;51.392;12.448;2023-02-28T00:40:24;0.40;97.30
1075;DHT22;526;51.392;12.448;2023-02-28T00:42:50;0.40;97.30
1075;DHT22;526;51.392;12.448;2023-02-28T00:45:15;0.40;97.30
1075;DHT22;526;51.392;12.448;2023-02-28T00:47:41;0.40;97.30
1075;DHT22;526;51.392;12.448;2023-02-28T00:50:07;0.40;97.30
1075;DHT22;526;51.392;12.448;2023-02-28T00:52:33;0.50;97.30
1075;DHT22;526;51.392;12.448;2023-02-28T00:54:59;0.50;97.30
1075;DHT22;526;51.392;12.448;2023-02-28T00:57:24;0.40;97.30
1075;DHT22;526;51.392;12.448;2023-02-28T00:59:50;0.40;97.30
1075;DHT22;526;51.392;12.448;2023-02-28T01:02:15;0.40;97.30
1075;DHT22;526;51.392;12.448;2023-02-28T01:04:41;0.40;97.30
1075;DHT22;526;51.392;12.448;2023-02-28T01:07:06;0.40;97.30
1075;DHT22;526;51.392;12.448;2023-02-28T01:09:32;0.40;97.30
1075;DHT22;526;51.392;12.448;2023-02-28T01:12:00;0.40;97.30
1075;DHT22;526;51.392;12.448;2023-02-28T01:14:25;0.40;97.30
1075;DHT22;526;51.392;12.448;2023-02-28T01:16:51;0.40;97.30
1075;DHT22;526;51.392;12.448;2023-02-28T01:19:17;0.40;97.30
1075;DHT22;526;51.392;12.448;2023-02-28T01:21:42;0.40;97.30
1075;DHT22;526;51.392;12.448;2023-02-28T01:24:08;0.40;97.30
1075;DHT22;526;51.392;12.448;2023-02-28T01:26:35;0.30;97.30
1075;DHT22;526;51.392;12.448;2023-02-28T01:29:01;0.30;97.30
1075;DHT22;526;51.392;12.448;2023-02-28T01:31:26;0.40;97.30
1075;DHT22;526;51.392;12.448;2023-02-28T01:33:52;0.40;97.30
1075;DHT22;526;51.392;12.448;2023-02-28T01:36:20;0.40;97.30
1075;DHT22;526;51.392;12.448;2023-02-28T01:38:47;0.40;97.30
1075;DHT22;526;51.392;12.448;2023-02-28T01:41:22;0.40;97.30
1075;DHT22;526;51.392;12.448;2023-02-28T01:46:15;0.40;97.30
1075;DHT22;526;51.392;12.448;2023-02-28T01:48:48;0.40;97.30
1075;DHT22;526;51.392;12.448;2023-02-28T01:51:31;0.40;97.30
1075;DHT22;526;51.392;12.448;2023-02-28T01:54:02;0.40;97.30
1075;DHT22;526;51.392;12.448;2023-02-28T01:56:32;0.30;97.30
1075;DHT22;526;51.392;12.448;2023-02-28T01:58:58;0.30;97.30
1075;DHT22;526;51.392;12.448;2023-02-28T02:01:26;0.40;97.30
1075;DHT22;526;51.392;12.448;2023-02-28T02:04:03;0.40;97.30
1075;DHT22;526;51.392;12.448;2023-02-28T02:06:42;0.40;97.30
1075;DHT22;526;51.392;12.448;2023-02-28T02:09:08;0.40;97.30
1075;DHT22;526;51.392;12.448;2023-02-28T02:11:34;0.40;97.30
1075;DHT22;526;51.392;12.448;2023-02-28T02:14:37;0.40;97.30
1075;DHT22;526;51.392;12.448;2023-02-28T02:17:28;0.40;97.30
1075;DHT22;526;51.392;12.448;2023-02-28T02:20:16;0.30;97.30
1075;DHT22;526;51.392;12.448;2023-02-28T02:31:14;0.30;97.30
1075;DHT22;526;51.392;12.448;2023-02-28T02:36:49;0.30;97.30
1075;DHT22;526;51.392;12.448;2023-02-28T02:39:50;0.20;97.30
1075;DHT22;526;51.392;12.448;2023-02-28T02:42:40;0.20;97.30
1075;DHT22;526;51.392;12.448;2023-02-28T02:45:13;0.20;97.30
1075;DHT22;526;51.392;12.448;2023-02-28T02:47:41;0.10;97.30
1075;DHT22;526;51.392;12.448;2023-02-28T02:50:12;0.10;97.30
1075;DHT22;526;51.392;12.448;2023-02-28T02:52:50;0.00;97.30
1075;DHT22;526;51.392;12.448;2023-02-28T02:55:17;0.00;97.30
1075;DHT22;526;51.392;12.448;2023-02-28T02:57:57;0.00;97.30
1075;DHT22;526;51.392;12.448;2023-02-28T03:00:29;-0.10;97.30
1075;DHT22;526;51.392;12.448;2023-02-28T03:02:56;-0.10;97.30
1075;DHT22;526;51.392;12.448;2023-02-28T03:05:29;-0.10;97.30
1075;DHT22;526;51.392;12.448;2023-02-28T03:07:57;-0.20;97.30
1075;DHT22;526;51.392;12.448;2023-02-28T03:10:50;-0.20;97.30
1075;DHT22;526;51.392;12.448;2023-02-28T03:16:32;-0.30;97.30
1075;DHT22;526;51.392;12.448;2023-02-28T03:27:14;-0.50;97.30
1075;DHT22;526;51.392;12.448;2023-02-28T03:29:47;-0.50;97.30
1075;DHT22;526;51.392;12.448;2023-02-28T03:32:24;-0.60;97.30
1075;DHT22;526;51.392;12.448;2023-02-28T03:34:58;-0.60;97.30
1075;DHT22;526;51.392;12.448;2023-02-28T03:37:27;-0.60;97.30
1075;DHT22;526;51.392;12.448;2023-02-28T03:40:08;-0.60;97.30
1075;DHT22;526;51.392;12.448;2023-02-28T03:42:38;-0.60;97.30
1075;DHT22;526;51.392;12.448;2023-02-28T03:45:11;-0.60;97.30
1075;DHT22;526;51.392;12.448;2023-02-28T03:47:45;-0.70;97.30
1075;DHT22;526;51.392;12.448;2023-02-28T03:50:18;-0.70;97.30
1075;DHT22;526;51.392;12.448;2023-02-28T03:53:00;-0.70;97.30
1075;DHT22;526;51.392;12.448;2023-02-28T03:55:29;-0.70;97.30
1075;DHT22;526;51.392;12.448;2023-02-28T03:58:04;-0.80;97.30
1075;DHT22;526;51.392;12.448;2023-02-28T04:00:34;-0.80;97.30
1075;DHT22;526;51.392;12.448;2023-02-28T04:03:01;-0.80;97.30
1075;DHT22;526;51.392;12.448;2023-02-28T04:05:27;-0.80;97.30
1075;DHT22;526;51.392;12.448;2023-02-28T04:07:53;-0.80;97.30
1075;DHT22;526;51.392;12.448;2023-02-28T04:10:19;-0.80;97.30
1075;DHT22;526;51.392;12.448;2023-02-28T04:12:45;-0.80;97.30
1075;DHT22;526;51.392;12.448;2023-02-28T04:15:10;-0.70;97.30
1075;DHT22;526;51.392;12.448;2023-02-28T04:17:36;-0.70;97.30
1075;DHT22;526;51.392;12.448;2023-02-28T04:20:03;-0.70;97.30
1075;DHT22;526;51.392;12.448;2023-02-28T04:22:29;-0.70;97.30
1075;DHT22;526;51.392;12.448;2023-02-28T04:24:54;-0.70;97.30
1075;DHT22;526;51.392;12.448;2023-02-28T04:27:21;-0.70;97.30
1075;DHT22;526;51.392;12.448;2023-02-28T04:29:46;-0.70;97.30
1075;DHT22;526;51.392;12.448;2023-02-28T04:32:12;-0.60;97.30
1075;DHT22;526;51.392;12.448;2023-02-28T04:34:38;-0.60;97.30
1075;DHT22;526;51.392;12.448;2023-02-28T04:37:04;-0.60;97.30
1075;DHT22;526;51.392;12.448;2023-02-28T04:39:30;-0.60;97.30
1075;DHT22;526;51.392;12.448;2023-02-28T04:41:55;-0.70;97.30
1075;DHT22;526;51.392;12.448;2023-02-28T04:44:22;-0.70;97.30
1075;DHT22;526;51.392;12.448;2023-02-28T04:46:48;-0.70;97.30
1075;DHT22;526;51.392;12.448;2023-02-28T04:49:14;-0.70;97.30
1075;DHT22;526;51.392;12.448;2023-02-28T04:51:41;-0.70;97.30
1075;DHT22;526;51.392;12.448;2023-02-28T04:54:06;-0.70;97.30
1075;DHT22;526;51.392;12.448;2023-02-28T04:56:32;-0.70;97.30
1075;DHT22;526;51.392;12.448;2023-02-28T04:58:58;-0.70;97.30
1075;DHT22;526;51.392;12.448;2023-02-28T05:01:28;-0.80;97.30
1075;DHT22;526;51.392;12.448;2023-02-28T05:03:56;-0.80;97.30
1075;DHT22;526;51.392;12.448;2023-02-28T05:06:23;-0.80;97.30
1075;DHT22;526;51.392;12.448;2023-02-28T05:08:49;-0.80;97.30
1075;DHT22;526;51.392;12.448;2023-02-28T05:13:49;-0.80;97.30
1075;DHT22;526;51.392;12.448;2023-02-28T05:16:16;-0.80;97.30
1075;DHT22;526;51.392;12.448;2023-02-28T05:18:42;-0.80;97.30
1075;DHT22;526;51.392;12.448;2023-02-28T05:21:28;-0.80;97.30
1075;DHT22;526;51.392;12.448;2023-02-28T05:23:56;-0.90;97.30
1075;DHT22;526;51.392;12.448;2023-02-28T05:26:22;-0.90;97.30
1075;DHT22;526;51.392;12.448;2023-02-28T05:28:47;-0.90;97.30
1075;DHT22;526;51.392;12.448;2023-02-28T05:31:13;-0.90;97.30
1075;DHT22;526;51.392;12.448;2023-02-28T05:33:39;-1.00;97.30
1075;DHT22;526;51.392;12.448;2023-02-28T05:36:05;-1.00;97.30
1075;DHT22;526;51.392;12.448;2023-02-28T05:38:31;-1.00;97.30
1075;DHT22;526;51.392;12.448;2023-02-28T05:40:56;-1.10;97.30
1075;DHT22;526;51.392;12.448;2023-02-28T05:43:22;-1.10;97.30
1075;DHT22;526;51.392;12.448;2023-02-28T05:45:47;-1.10;97.30
1075;DHT22;526;51.392;12.448;2023-02-28T05:48:13;-1.10;97.30
1075;DHT22;526;51.392;12.448;2023-02-28T05:50:39;-1.10;97.30
1075;DHT22;526;51.392;12.448;2023-02-28T05:53:05;-1.20;97.30
1075;DHT22;526;51.392;12.448;2023-02-28T05:55:30;-1.20;97.30
1075;DHT22;526;51.392;12.448;2023-02-28T05:57:56;-1.20;97.30
1075;DHT22;526;51.392;12.448;2023-02-28T06:00:23;-1.20;97.30
1075;DHT22;526;51.392;12.448;2023-02-28T06:02:48;-1.20;97.30
1075;DHT22;526;51.392;12.448;2023-02-28T06:05:16;-1.20;97.30
1075;DHT22;526;51.392;12.448;2023-02-28T06:07:42;-1.20;97.30
1075;DHT22;526;51.392;12.448;2023-02-28T06:10:11;-1.20;97.30
1075;DHT22;526;51.392;12.448;2023-02-28T06:12:38;-1.20;97.30
1075;DHT22;526;51.392;12.448;2023-02-28T06:15:04;-1.20;97.30
1075;DHT22;526;51.392;12.448;2023-02-28T06:17:29;-1.20;97.30
1075;DHT22;526;51.392;12.448;2023-02-28T06:19:58;-1.20;97.30
1075;DHT22;526;51.392;12.448;2023-02-28T06:22:23;-1.20;97.30
1075;DHT22;526;51.392;12.448;2023-02-28T06:24:51;-1.20;97.30
1075;DHT22;526;51.392;12.448;2023-02-28T06:27:18;-1.30;97.30
1075;DHT22;526;51.392;12.448;2023-02-28T06:29:45;-1.30;97.30
1075;DHT22;526;51.392;12.448;2023-02-28T06:32:10;-1.30;97.30
1075;DHT22;526;51.392;12.448;2023-02-28T06:34:36;-1.30;97.30
1075;DHT22;526;51.392;12.448;2023-02-28T06:37:02;-1.20;97.30
1075;DHT22;526;51.392;12.448;2023-02-28T06:39:29;-1.20;97.30
1075;DHT22;526;51.392;12.448;2023-02-28T06:41:54;-1.20;97.30
1075;DHT22;526;51.392;12.448;2023-02-28T06:44:20;-1.20;97.30
1075;DHT22;526;51.392;12.448;2023-02-28T06:46:46;-1.10;97.30
1075;DHT22;526;51.392;12.448;2023-02-28T06:49:12;-1.10;97.30
1075;DHT22;526;51.392;12.448;2023-02-28T06:51:40;-1.00;97.30
1075;DHT22;526;51.392;12.448;2023-02-28T06:54:07;-1.00;97.30
1075;DHT22;526;51.392;12.448;2023-02-28T06:56:35;-0.90;97.30
1075;DHT22;526;51.392;12.448;2023-02-28T06:59:01;-0.90;97.30
1075;DHT22;526;51.392;12.448;2023-02-28T07:01:27;-0.80;97.30
1075;DHT22;526;51.392;12.448;2023-02-28T07:03:54;-0.70;97.30
1075;DHT22;526;51.392;12.448;2023-02-28T07:06:21;-0.70;97.30
1075;DHT22;526;51.392;12.448;2023-02-28T07:08:51;-0.60;97.30
1075;DHT22;526;51.392;12.448;2023-02-28T07:11:18;-0.60;97.30
1075;DHT22;526;51.392;12.448;2023-02-28T07:13:44;-0.50;97.30
1075;DHT22;526;51.392;12.448;2023-02-28T07:16:12;-0.40;97.30
1075;DHT22;526;51.392;12.448;2023-02-28T07:18:38;-0.40;97.30
1075;DHT22;526;51.392;12.448;2023-02-28T07:21:05;-0.30;97.30
1075;DHT22;526;51.392;12.448;2023-02-28T07:23:32;-0.20;97.30
1075;DHT22;526;51.392;12.448;2023-02-28T07:25:57;-0.20;97.30
1075;DHT22;526;51.392;12.448;2023-02-28T07:28:23;-0.10;97.30
1075;DHT22;526;51.392;12.448;2023-02-28T07:30:49;-0.10;97.30
1075;DHT22;526;51.392;12.448;2023-02-28T07:33:14;-0.10;97.30
1075;DHT22;526;51.392;12.448;2023-02-28T07:35:40;-0.10;97.30
1075;DHT22;526;51.392;12.448;2023-02-28T07:38:05;-0.10;97.30
1075;DHT22;526;51.392;12.448;2023-02-28T07:40:33;-0.10;97.30
1075;DHT22;526;51.392;12.448;2023-02-28T07:43:00;0.00;97.30
1075;DHT22;526;51.392;12.448;2023-02-28T07:45:26;0.00;97.30
1075;DHT22;526;51.392;12.448;2023-02-28T07:47:52;0.10;97.30
1075;DHT22;526;51.392;12.448;2023-02-28T07:50:18;0.10;97.30
1075;DHT22;526;51.392;12.448;2023-02-28T07:52:43;0.20;97.30
1075;DHT22;526;51.392;12.448;2023-02-28T07:55:09;0.30;97.30
1075;DHT22;526;51.392;12.448;2023-02-28T07:57:35;0.50;97.30
1075;DHT22;526;51.392;12.448;2023-02-28T08:00:03;0.60;97.30
1075;DHT22;526;51.392;12.448;2023-02-28T08:02:29;0.70;97.30
1075;DHT22;526;51.392;12.448;2023-02-28T08:04:54;0.80;97.30
1075;DHT22;526;51.392;12.448;2023-02-28T08:07:20;0.90;97.30
1075;DHT22;526;51.392;12.448;2023-02-28T08:09:46;0.90;97.30
1075;DHT22;526;51.392;12.448;2023-02-28T08:12:11;1.00;97.30
1075;DHT22;526;51.392;12.448;2023-02-28T08:14:37;1.10;97.30
1075;DHT22;526;51.392;12.448;2023-02-28T08:17:04;1.20;97.30
1075;DHT22;526;51.392;12.448;2023-02-28T08:19:29;1.30;96.90
1075;DHT22;526;51.392;12.448;2023-02-28T08:21:55;1.40;96.30
1075;DHT22;526;51.392;12.448;2023-02-28T08:24:21;1.50;96.00
1075;DHT22;526;51.392;12.448;2023-02-28T08:26:47;1.50;95.30
1075;DHT22;526;51.392;12.448;2023-02-28T08:29:12;1.60;95.20
1075;DHT22;526;51.392;12.448;2023-02-28T08:31:38;1.70;94.60
1075;DHT22;526;51.392;12.448;2023-02-28T08:34:12;1.70;94.00
1075;DHT22;526;51.392;12.448;2023-02-28T08:36:38;1.80;94.10
1075;DHT22;526;51.392;12.448;2023-02-28T08:39:04;1.80;94.20
1075;DHT22;526;51.392;12.448;2023-02-28T08:41:30;1.90;93.60
1075;DHT22;526;51.392;12.448;2023-02-28T08:43:56;2.00;93.50
1075;DHT22;526;51.392;12.448;2023-02-28T08:46:22;2.10;93.60
1075;DHT22;526;51.392;12.448;2023-02-28T08:48:52;2.10;92.30
1075;DHT22;526;51.392;12.448;2023-02-28T08:51:18;2.20;92.10
1075;DHT22;526;51.392;12.448;2023-02-28T08:53:50;2.20;92.60
1075;DHT22;526;51.392;12.448;2023-02-28T08:56:17;2.30;92.40
1075;DHT22;526;51.392;12.448;2023-02-28T08:58:45;2.30;91.10
1075;DHT22;526;51.392;12.448;2023-02-28T09:01:29;2.30;91.00
1075;DHT22;526;51.392;12.448;2023-02-28T09:03:55;2.40;90.30
1075;DHT22;526;51.392;12.448;2023-02-28T09:06:23;2.50;90.50
1075;DHT22;526;51.392;12.448;2023-02-28T09:08:49;2.60;91.00
1075;DHT22;526;51.392;12.448;2023-02-28T09:11:16;2.60;90.30
1075;DHT22;526;51.392;12.448;2023-02-28T09:13:42;2.70;89.20
1075;DHT22;526;51.392;12.448;2023-02-28T09:16:10;2.90;88.50
1075;DHT22;526;51.392;12.448;2023-02-28T09:18:37;3.00;87.30
1075;DHT22;526;51.392;12.448;2023-02-28T09:21:20;3.00;86.80
1075;DHT22;526;51.392;12.448;2023-02-28T09:23:48;3.10;85.80
1075;DHT22;526;51.392;12.448;2023-02-28T09:26:23;3.10;85.50
1075;DHT22;526;51.392;12.448;2023-02-28T09:28:49;3.20;84.80
1075;DHT22;526;51.392;12.448;2023-02-28T09:31:17;3.40;84.90
1075;DHT22;526;51.392;12.448;2023-02-28T09:33:49;3.40;83.90
1075;DHT22;526;51.392;12.448;2023-02-28T09:36:15;3.40;83.80
1075;DHT22;526;51.392;12.448;2023-02-28T09:38:41;3.50;84.70
1075;DHT22;526;51.392;12.448;2023-02-28T09:41:41;3.60;84.20
1075;DHT22;526;51.392;12.448;2023-02-28T09:44:20;3.70;84.20
1075;DHT22;526;51.392;12.448;2023-02-28T09:46:51;3.90;83.60
1075;DHT22;526;51.392;12.448;2023-02-28T09:49:31;3.90;83.00
1075;DHT22;526;51.392;12.448;2023-02-28T09:52:02;3.90;81.60
1075;DHT22;526;51.392;12.448;2023-02-28T09:54:31;3.90;81.90
1075;DHT22;526;51.392;12.448;2023-02-28T09:57:17;4.00;82.30
1075;DHT22;526;51.392;12.448;2023-02-28T10:02:53;4.10;81.00
1075;DHT22;526;51.392;12.448;2023-02-28T10:05:36;4.10;81.60
1075;DHT22;526;51.392;12.448;2023-02-28T10:08:19;4.00;81.30
1075;DHT22;526;51.392;12.448;2023-02-28T10:10:53;4.10;81.50
1075;DHT22;526;51.392;12.448;2023-02-28T10:13:36;3.90;80.30
1075;DHT22;526;51.392;12.448;2023-02-28T10:16:20;3.70;80.90
1075;DHT22;526;51.392;12.448;2023-02-28T10:18:59;3.70;82.00
1075;DHT22;526;51.392;12.448;2023-02-28T10:21:35;3.80;81.10
1075;DHT22;526;51.392;12.448;2023-02-28T10:24:19;3.90;81.20
1075;DHT22;526;51.392;12.448;2023-02-28T10:26:47;4.10;81.50
1075;DHT22;526;51.392;12.448;2023-02-28T10:29:13;4.30;81.70
1075;DHT22;526;51.392;12.448;2023-02-28T10:31:39;4.40;81.20
1075;DHT22;526;51.392;12.448;2023-02-28T10:34:05;4.50;80.60
1075;DHT22;526;51.392;12.448;2023-02-28T10:36:31;4.60;80.60
1075;DHT22;526;51.392;12.448;2023-02-28T10:38:57;4.70;81.10
1075;DHT22;526;51.392;12.448;2023-02-28T10:41:30;4.70;80.10
1075;DHT22;526;51.392;12.448;2023-02-28T10:44:22;4.80;80.90
1075;DHT22;526;51.392;12.448;2023-02-28T10:46:48;4.80;80.00
1075;DHT22;526;51.392;12.448;2023-02-28T10:49:22;4.90;80.90
1075;DHT22;526;51.392;12.448;2023-02-28T10:51:52;4.90;80.60
1075;DHT22;526;51.392;12.448;2023-02-28T10:54:33;4.90;80.30
1075;DHT22;526;51.392;12.448;2023-02-28T10:59:32;5.10;80.90
1075;DHT22;526;51.392;12.448;2023-02-28T11:01:57;5.20;80.40
1075;DHT22;526;51.392;12.448;2023-02-28T11:07:03;5.30;80.00
1075;DHT22;526;51.392;12.448;2023-02-28T11:09:36;5.30;79.40
1075;DHT22;526;51.392;12.448;2023-02-28T11:12:16;5.20;79.20
1075;DHT22;526;51.392;12.448;2023-02-28T11:14:49;5.30;79.40
1075;DHT22;526;51.392;12.448;2023-02-28T11:17:24;5.50;80.00
1075;DHT22;526;51.392;12.448;2023-02-28T11:19:53;5.60;79.50
1075;DHT22;526;51.392;12.448;2023-02-28T11:22:26;5.50;78.60
1075;DHT22;526;51.392;12.448;2023-02-28T11:24:55;5.50;80.30
1075;DHT22;526;51.392;12.448;2023-02-28T11:29:54;5.70;79.40
1075;DHT22;526;51.392;12.448;2023-02-28T11:32:23;5.80;79.70
1075;DHT22;526;51.392;12.448;2023-02-28T11:37:38;5.80;81.20
1075;DHT22;526;51.392;12.448;2023-02-28T11:40:23;6.00;80.50
1075;DHT22;526;51.392;12.448;2023-02-28T11:43:01;6.10;79.70
1075;DHT22;526;51.392;12.448;2023-02-28T11:45:44;6.10;79.90
1075;DHT22;526;51.392;12.448;2023-02-28T11:56:47;5.90;78.90
1075;DHT22;526;51.392;12.448;2023-02-28T11:59:33;6.00;80.30
1075;DHT22;526;51.392;12.448;2023-02-28T12:02:24;6.10;79.90
1075;DHT22;526;51.392;12.448;2023-02-28T12:11:30;6.40;79.20
1075;DHT22;526;51.392;12.448;2023-02-28T12:14:12;6.60;78.30
1075;DHT22;526;51.392;12.448;2023-02-28T12:16:55;6.70;79.20
1075;DHT22;526;51.392;12.448;2023-02-28T12:19:44;6.80;78.10
1075;DHT22;526;51.392;12.448;2023-02-28T12:22:32;6.90;79.60
1075;DHT22;526;51.392;12.448;2023-02-28T12:27:41;7.20;78.00
1075;DHT22;526;51.392;12.448;2023-02-28T12:30:27;7.30;77.90
1075;DHT22;526;51.392;12.448;2023-02-28T12:33:17;7.40;77.70
1075;DHT22;526;51.392;12.448;2023-02-28T12:35:57;7.40;76.90
1075;DHT22;526;51.392;12.448;2023-02-28T12:38:31;7.50;77.10
1075;DHT22;526;51.392;12.448;2023-02-28T12:41:05;7.70;78.00
1075;DHT22;526;51.392;12.448;2023-02-28T12:43:40;7.80;77.20
1075;DHT22;526;51.392;12.448;2023-02-28T12:46:12;8.00;77.70
1075;DHT22;526;51.392;12.448;2023-02-28T12:48:46;7.90;75.80
1075;DHT22;526;51.392;12.448;2023-02-28T12:51:13;7.60;75.50
1075;DHT22;526;51.392;12.448;2023-02-28T12:56:42;7.60;76.60
1075;DHT22;526;51.392;12.448;2023-02-28T12:59:11;7.70;77.40
1075;DHT22;526;51.392;12.448;2023-02-28T13:05:00;7.90;76.10
1075;DHT22;526;51.392;12.448;2023-02-28T13:10:24;7.80;76.10
1075;DHT22;526;51.392;12.448;2023-02-28T13:12:51;7.90;76.30
1075;DHT22;526;51.392;12.448;2023-02-28T13:15:26;8.00;75.60
1075;DHT22;526;51.392;12.448;2023-02-28T13:17:56;8.10;75.00
1075;DHT22;526;51.392;12.448;2023-02-28T13:20:35;8.10;75.60
1075;DHT22;526;51.392;12.448;2023-02-28T13:23:02;8.30;75.50
1075;DHT22;526;51.392;12.448;2023-02-28T13:31:14;8.60;75.30
1075;DHT22;526;51.392;12.448;2023-02-28T13:36:28;8.70;74.90
1075;DHT22;526;51.392;12.448;2023-02-28T13:45:23;8.30;74.40
1075;DHT22;526;51.392;12.448;2023-02-28T13:47:53;8.20;74.40
1075;DHT22;526;51.392;12.448;2023-02-28T13:50:40;8.30;74.00
1075;DHT22;526;51.392;12.448;2023-02-28T13:56:03;8.40;74.30
1075;DHT22;526;51.392;12.448;2023-02-28T13:58:53;8.50;74.50
1075;DHT22;526;51.392;12.448;2023-02-28T14:04:09;8.70;73.70
1075;DHT22;526;51.392;12.448;2023-02-28T14:06:48;8.70;73.60
1075;DHT22;526;51.392;12.448;2023-02-28T14:09:33;8.70;72.90
1075;DHT22;526;51.392;12.448;2023-02-28T14:15:23;8.70;74.00
1075;DHT22;526;51.392;12.448;2023-02-28T14:17:54;8.60;74.10
1075;DHT22;526;51.392;12.448;2023-02-28T14:20:26;8.90;74.20
1075;DHT22;526;51.392;12.448;2023-02-28T14:23:03;8.90;73.40
1075;DHT22;526;51.392;12.448;2023-02-28T14:28:37;8.80;73.90
1075;DHT22;526;51.392;12.448;2023-02-28T14:31:54;8.60;73.60
1075;DHT22;526;51.392;12.448;2023-02-28T14:34:31;8.70;74.10
1075;DHT22;526;51.392;12.448;2023-02-28T14:37:01;8.90;73.40
1075;DHT22;526;51.392;12.448;2023-02-28T14:39:27;9.10;73.30
1075;DHT22;526;51.392;12.448;2023-02-28T14:41:56;9.30;73.30
1075;DHT22;526;51.392;12.448;2023-02-28T14:46:55;9.60;72.30
1075;DHT22;526;51.392;12.448;2023-02-28T14:49:44;9.40;71.20
1075;DHT22;526;51.392;12.448;2023-02-28T14:52:24;9.30;72.50
1075;DHT22;526;51.392;12.448;2023-02-28T14:54:55;9.30;72.50
1075;DHT22;526;51.392;12.448;2023-02-28T14:57:32;9.50;72.50
1075;DHT22;526;51.392;12.448;2023-02-28T15:02:26;9.50;72.10
1075;DHT22;526;51.392;12.448;2023-02-28T15:04:57;9.70;72.10
1075;DHT22;526;51.392;12.448;2023-02-28T15:07:23;9.80;71.50
1075;DHT22;526;51.392;12.448;2023-02-28T15:10:23;9.80;71.70
1075;DHT22;526;51.392;12.448;2023-02-28T15:15:57;10.10;71.20
1075;DHT22;526;51.392;12.448;2023-02-28T15:21:01;9.50;71.20
1075;DHT22;526;51.392;12.448;2023-02-28T15:23:28;9.40;72.00
1075;DHT22;526;51.392;12.448;2023-02-28T15:25:54;9.10;71.70
1075;DHT22;526;51.392;12.448;2023-02-28T15:28:22;9.10;72.40
1075;DHT22;526;51.392;12.448;2023-02-28T15:31:00;9.10;72.40
1075;DHT22;526;51.392;12.448;2023-02-28T15:33:31;9.10;71.60
1075;DHT22;526;51.392;12.448;2023-02-28T15:36:14;9.20;71.30
1075;DHT22;526;51.392;12.448;2023-02-28T15:38:42;9.20;71.60
1075;DHT22;526;51.392;12.448;2023-02-28T15:41:25;9.30;71.80
1075;DHT22;526;51.392;12.448;2023-02-28T15:46:43;9.80;71.30
1075;DHT22;526;51.392;12.448;2023-02-28T15:49:18;9.90;70.90
1075;DHT22;526;51.392;12.448;2023-02-28T15:51:44;9.90;70.80
1075;DHT22;526;51.392;12.448;2023-02-28T15:54:18;10.00;70.90
1075;DHT22;526;51.392;12.448;2023-02-28T15:56:47;10.20;71.00
1075;DHT22;526;51.392;12.448;2023-02-28T15:59:27;10.40;70.50
1075;DHT22;526;51.392;12.448;2023-02-28T16:02:16;10.50;70.00
1075;DHT22;526;51.392;12.448;2023-02-28T16:07:24;9.90;71.00
1075;DHT22;526;51.392;12.448;2023-02-28T16:09:51;9.70;70.90
1075;DHT22;526;51.392;12.448;2023-02-28T16:12:16;9.30;71.30
1075;DHT22;526;51.392;12.448;2023-02-28T16:14:42;9.00;72.30
1075;DHT22;526;51.392;12.448;2023-02-28T16:17:20;8.90;72.60
1075;DHT22;526;51.392;12.448;2023-02-28T16:19:46;8.80;72.70
1075;DHT22;526;51.392;12.448;2023-02-28T16:22:11;8.40;73.30
1075;DHT22;526;51.392;12.448;2023-02-28T16:24:37;7.90;74.40
1075;DHT22;526;51.392;12.448;2023-02-28T16:27:03;7.40;75.30
1075;DHT22;526;51.392;12.448;2023-02-28T16:29:32;6.90;76.50
1075;DHT22;526;51.392;12.448;2023-02-28T16:31:59;6.50;77.20
1075;DHT22;526;51.392;12.448;2023-02-28T16:34:33;6.30;78.10
1075;DHT22;526;51.392;12.448;2023-02-28T16:37:01;6.00;78.70
1075;DHT22;526;51.392;12.448;2023-02-28T16:39:34;5.80;79.20
1075;DHT22;526;51.392;12.448;2023-02-28T16:42:00;5.60;80.30
1075;DHT22;526;51.392;12.448;2023-02-28T16:44:33;5.50;80.60
1075;DHT22;526;51.392;12.448;2023-02-28T16:47:03;5.40;81.10
1075;DHT22;526;51.392;12.448;2023-02-28T16:49:32;5.30;81.40
1075;DHT22;526;51.392;12.448;2023-02-28T16:51:57;5.20;81.60
1075;DHT22;526;51.392;12.448;2023-02-28T16:54:23;5.10;81.90
1075;DHT22;526;51.392;12.448;2023-02-28T16:56:49;4.90;82.50
1075;DHT22;526;51.392;12.448;2023-02-28T16:59:23;4.90;82.70
1075;DHT22;526;51.392;12.448;2023-02-28T17:01:50;4.80;83.40
1075;DHT22;526;51.392;12.448;2023-02-28T17:04:17;4.70;83.70
1075;DHT22;526;51.392;12.448;2023-02-28T17:06:46;4.60;84.20
1075;DHT22;526;51.392;12.448;2023-02-28T17:09:16;4.50;84.20
1075;DHT22;526;51.392;12.448;2023-02-28T17:11:42;4.40;84.60
1075;DHT22;526;51.392;12.448;2023-02-28T17:14:08;4.30;84.40
1075;DHT22;526;51.392;12.448;2023-02-28T17:16:35;4.20;84.70
1075;DHT22;526;51.392;12.448;2023-02-28T17:19:04;4.10;84.90
1075;DHT22;526;51.392;12.448;2023-02-28T17:21:31;4.00;85.30
1075;DHT22;526;51.392;12.448;2023-02-28T17:23:57;3.90;85.50
1075;DHT22;526;51.392;12.448;2023-02-28T17:26:23;3.90;86.50
1075;DHT22;526;51.392;12.448;2023-02-28T17:28:53;3.70;86.70
1075;DHT22;526;51.392;12.448;2023-02-28T17:31:21;3.70;87.00
1075;DHT22;526;51.392;12.448;2023-02-28T17:33:47;3.60;87.20
1075;DHT22;526;51.392;12.448;2023-02-28T17:36:20;3.50;87.10
1075;DHT22;526;51.392;12.448;2023-02-28T17:38:50;3.30;87.40
1075;DHT22;526;51.392;12.448;2023-02-28T17:41:15;3.20;87.70
1075;DHT22;526;51.392;12.448;2023-02-28T17:43:41;3.10;88.10
1075;DHT22;526;51.392;12.448;2023-02-28T17:46:21;3.00;88.70
1075;DHT22;526;51.392;12.448;2023-02-28T17:48:49;2.90;89.20
1075;DHT22;526;51.392;12.448;2023-02-28T17:51:15;2.90;89.60
1075;DHT22;526;51.392;12.448;2023-02-28T17:53:41;2.80;89.70
1075;DHT22;526;51.392;12.448;2023-02-28T17:56:19;2.70;90.10
1075;DHT22;526;51.392;12.448;2023-02-28T17:58:45;2.60;90.50
1075;DHT22;526;51.392;12.448;2023-02-28T18:01:10;2.50;90.60
1075;DHT22;526;51.392;12.448;2023-02-28T18:03:39;2.50;90.60
1075;DHT22;526;51.392;12.448;2023-02-28T18:06:06;2.40;90.70
1075;DHT22;526;51.392;12.448;2023-02-28T18:08:34;2.30;91.20
1075;DHT22;526;51.392;12.448;2023-02-28T18:11:05;2.20;91.40
1075;DHT22;526;51.392;12.448;2023-02-28T18:13:33;2.10;91.70
1075;DHT22;526;51.392;12.448;2023-02-28T18:15:58;2.00;91.80
1075;DHT22;526;51.392;12.448;2023-02-28T18:18:24;2.00;92.20
1075;DHT22;526;51.392;12.448;2023-02-28T18:20:49;1.90;92.30
1075;DHT22;526;51.392;12.448;2023-02-28T18:23:17;1.80;92.70